Time;durP1;ratioP1;P1;durP2;ratioP2;P2;SDS_P1;SDS_P2;PMS_P1;PMS_P2;Temp;Humidity;BMP_temperature;BMP_pressure;BME280_temperature;BME280_humidity;BME280_pressure;Samples;Min_cycle;Max_cycle;Signal;HPM_P1;HPM_P2
2022/06/02 00:02:06;;;;;;;1.70;1.37;;;17.80;81.20;;;;;;5023851;28;20457;-73
2022/06/02 00:04:43;;;;;;;3.73;1.77;;;17.80;81.20;;;;;;5023897;28;20798;-73
2022/06/02 00:07:17;;;;;;;1.40;1.30;;;17.70;81.30;;;;;;5023349;28;20795;-73
2022/06/02 00:10:06;;;;;;;1.93;1.20;;;17.60;81.40;;;;;;5023328;28;20433;-73
2022/06/02 00:12:47;;;;;;;1.57;1.43;;;17.50;81.70;;;;;;5022383;28;20433;-75
2022/06/02 00:15:26;;;;;;;1.93;1.43;;;17.80;81.90;;;;;;5022152;28;20985;-73
2022/06/02 00:18:01;;;;;;;2.27;1.50;;;17.90;81.10;;;;;;5023890;28;20855;-73
2022/06/02 00:20:37;;;;;;;1.40;1.20;;;17.70;81.10;;;;;;5023534;28;20425;-72
2022/06/02 00:23:14;;;;;;;1.80;1.37;;;17.70;81.40;;;;;;5023247;28;20453;-71
2022/06/02 00:26:01;;;;;;;1.80;1.47;;;17.60;81.40;;;;;;5023187;28;20417;-71
2022/06/02 00:28:58;;;;;;;1.70;1.57;;;17.40;82.20;;;;;;5023549;28;20898;-75
2022/06/02 00:31:57;;;;;;;2.87;1.33;;;17.20;82.70;;;;;;5019772;28;20796;-72
2022/06/02 00:34:36;;;;;;;1.30;1.20;;;17.40;82.90;;;;;;5012495;28;20422;-73
2022/06/02 00:37:13;;;;;;;1.67;1.53;;;17.40;82.60;;;;;;5027348;28;20425;-72
2022/06/02 00:39:40;;;;;;;2.17;1.40;;;17.40;82.80;;;;;;5026824;28;20406;-73
2022/06/02 00:42:27;;;;;;;3.00;1.70;;;17.50;82.80;;;;;;5027312;28;20832;-71
2022/06/02 00:45:06;;;;;;;1.50;1.30;;;17.40;83.10;;;;;;5027255;28;20413;-72
2022/06/02 00:48:06;;;;;;;2.30;1.60;;;17.40;83.10;;;;;;5027480;28;20433;-72
2022/06/02 00:51:08;;;;;;;1.43;1.27;;;17.20;84.00;;;;;;5027099;28;20410;-75
2022/06/02 01:00:08;;;;;;;1.50;1.40;;;17.40;84.50;;;;;;5027455;28;20501;-74
2022/06/02 01:02:58;;;;;;;2.20;1.50;;;17.60;83.40;;;;;;5026976;28;20477;-76
2022/06/02 01:05:45;;;;;;;1.40;1.30;;;17.60;83.60;;;;;;5015685;28;20980;-75
2022/06/02 01:08:36;;;;;;;5.50;1.83;;;17.60;83.50;;;;;;5026229;28;20453;-77
2022/06/02 01:11:27;;;;;;;2.17;1.37;;;17.70;83.50;;;;;;5007505;28;20539;-72
2022/06/02 01:14:07;;;;;;;1.80;1.30;;;17.50;83.50;;;;;;5026602;28;20406;-73
2022/06/02 01:17:04;;;;;;;1.53;1.23;;;17.40;83.50;;;;;;5026604;28;20425;-73
2022/06/02 01:20:07;;;;;;;1.60;1.50;;;17.60;84.30;;;;;;5026571;28;20942;-76
2022/06/02 01:23:08;;;;;;;3.73;1.30;;;17.50;83.60;;;;;;5006848;28;20472;-73
2022/06/02 01:26:11;;;;;;;1.60;1.50;;;17.50;84.20;;;;;;5024828;28;21235;-72
2022/06/02 01:29:06;;;;;;;2.00;1.60;;;17.60;84.20;;;;;;5026348;28;20439;-75
2022/06/02 01:31:43;;;;;;;1.90;1.40;;;17.60;84.30;;;;;;5015787;28;20425;-73
2022/06/02 01:34:51;;;;;;;2.13;1.37;;;17.50;84.60;;;;;;5026180;28;20782;-73
2022/06/02 01:37:49;;;;;;;2.53;1.77;;;17.60;84.20;;;;;;5025765;28;20445;-72
2022/06/02 01:40:20;;;;;;;3.30;1.37;;;17.60;84.00;;;;;;5025970;28;20492;-72
2022/06/02 01:43:04;;;;;;;2.70;1.10;;;17.50;84.10;;;;;;5025334;28;20459;-72
2022/06/02 01:45:54;;;;;;;2.30;1.20;;;17.20;85.20;;;;;;5024529;28;20421;-75
2022/06/02 01:48:37;;;;;;;4.60;1.70;;;16.90;86.00;;;;;;5026070;28;20471;-72
2022/06/02 01:51:34;;;;;;;2.40;1.37;;;16.70;86.90;;;;;;5025860;28;20424;-74
2022/06/02 01:54:24;;;;;;;1.60;1.23;;;16.60;88.00;;;;;;5025882;28;20410;-75
2022/06/02 01:57:16;;;;;;;2.70;1.47;;;16.50;88.10;;;;;;5025387;28;20445;-71
2022/06/02 01:59:47;;;;;;;1.77;1.67;;;16.70;87.90;;;;;;5026003;28;20464;-72
2022/06/02 02:02:32;;;;;;;2.03;1.70;;;16.80;87.70;;;;;;5025739;28;20587;-72
2022/06/02 02:05:03;;;;;;;2.80;1.63;;;17.00;87.30;;;;;;5025587;28;20415;-73
2022/06/02 02:07:43;;;;;;;1.33;1.20;;;17.00;87.40;;;;;;5025206;28;20518;-72
2022/06/02 02:10:15;;;;;;;1.50;1.30;;;16.70;88.10;;;;;;5025391;28;20413;-72
2022/06/02 02:13:03;;;;;;;2.27;1.47;;;16.70;88.40;;;;;;5025811;28;20420;-72
2022/06/02 02:16:00;;;;;;;3.30;1.33;;;16.60;88.50;;;;;;5011713;28;20538;-72
2022/06/02 02:18:45;;;;;;;1.67;1.57;;;16.60;89.40;;;;;;5025537;28;20782;-73
2022/06/02 02:21:32;;;;;;;1.57;1.30;;;16.60;88.90;;;;;;5025221;28;20496;-73
2022/06/02 02:24:10;;;;;;;1.63;1.50;;;16.50;89.60;;;;;;5025390;28;20415;-73
2022/06/02 02:26:46;;;;;;;2.30;1.50;;;16.70;90.00;;;;;;5025475;28;20428;-73
2022/06/02 02:29:20;;;;;;;1.20;1.10;;;16.80;89.40;;;;;;5025082;28;20426;-73
2022/06/02 02:32:25;;;;;;;7.37;1.60;;;16.60;89.90;;;;;;5025310;28;20406;-72
2022/06/02 02:35:12;;;;;;;3.00;1.70;;;16.60;90.00;;;;;;5007807;28;20441;-73
2022/06/02 02:38:05;;;;;;;1.73;1.40;;;16.80;89.90;;;;;;5024956;28;20433;-73
2022/06/02 02:40:48;;;;;;;2.37;1.60;;;16.60;89.80;;;;;;5025365;28;20519;-75
2022/06/02 02:43:23;;;;;;;1.77;1.60;;;16.60;90.10;;;;;;5024153;28;20542;-72
2022/06/02 02:45:56;;;;;;;1.20;1.10;;;16.80;90.00;;;;;;5025632;28;20457;-72
2022/06/02 02:48:32;;;;;;;2.10;1.50;;;16.90;89.40;;;;;;5025277;28;20839;-75
2022/06/02 02:51:16;;;;;;;1.63;1.53;;;16.70;89.60;;;;;;5024960;28;20437;-72
2022/06/02 02:53:51;;;;;;;2.30;1.43;;;16.50;90.10;;;;;;5023881;28;20523;-72
2022/06/02 02:56:30;;;;;;;1.40;1.30;;;16.40;90.50;;;;;;5024331;28;20453;-74
2022/06/02 02:59:06;;;;;;;3.03;1.27;;;16.30;90.60;;;;;;5024700;28;20428;-72
2022/06/02 03:01:42;;;;;;;2.43;1.83;;;16.40;90.20;;;;;;5024524;28;20510;-75
2022/06/02 03:04:19;;;;;;;2.40;2.17;;;16.40;90.30;;;;;;5025011;28;21027;-76
2022/06/02 03:06:47;;;;;;;1.37;1.27;;;16.40;90.40;;;;;;5024217;28;20540;-70
2022/06/02 03:09:16;;;;;;;2.27;1.60;;;16.20;90.70;;;;;;5024439;28;20406;-72
2022/06/02 03:11:53;;;;;;;3.67;1.70;;;16.10;90.80;;;;;;5024036;28;20945;-74
2022/06/02 03:14:39;;;;;;;2.50;1.60;;;16.00;91.10;;;;;;5024114;28;20424;-71
2022/06/02 03:17:26;;;;;;;2.23;1.60;;;16.10;91.00;;;;;;5024343;28;20437;-75
2022/06/02 03:20:08;;;;;;;2.90;1.70;;;16.10;90.80;;;;;;5023473;28;20457;-72
2022/06/02 03:22:45;;;;;;;2.10;1.90;;;16.40;90.60;;;;;;5024403;28;20536;-73
2022/06/02 03:25:31;;;;;;;3.00;1.83;;;16.60;90.50;;;;;;5022986;28;20524;-73
2022/06/02 03:28:14;;;;;;;2.00;1.80;;;16.70;90.10;;;;;;5024038;28;20787;-74
2022/06/02 03:30:47;;;;;;;2.50;1.60;;;16.70;89.80;;;;;;5024337;28;20922;-74
2022/06/02 03:33:26;;;;;;;1.43;1.33;;;16.60;89.50;;;;;;5022805;28;20789;-73
2022/06/02 03:36:11;;;;;;;1.80;1.60;;;16.60;89.50;;;;;;5022552;28;20421;-73
2022/06/02 03:39:06;;;;;;;2.90;1.60;;;16.70;90.10;;;;;;5023892;28;20421;-73
2022/06/02 03:41:50;;;;;;;1.77;1.67;;;16.80;90.30;;;;;;5005766;28;20460;-72
2022/06/02 03:44:21;;;;;;;2.17;1.70;;;16.90;90.20;;;;;;5024371;28;20828;-74
2022/06/02 03:46:59;;;;;;;1.73;1.30;;;16.90;90.30;;;;;;5023962;28;20433;-72
2022/06/02 03:49:29;;;;;;;2.07;1.67;;;16.90;90.20;;;;;;5022731;28;20789;-72
2022/06/02 03:52:24;;;;;;;1.70;1.60;;;16.80;90.90;;;;;;5023314;28;20423;-72
2022/06/02 03:55:07;;;;;;;2.03;1.23;;;16.80;91.20;;;;;;5018956;28;20440;-73
2022/06/02 03:58:16;;;;;;;1.30;1.20;;;16.70;91.30;;;;;;5023914;28;20542;-71
2022/06/02 04:00:51;;;;;;;1.63;1.53;;;16.70;91.70;;;;;;5001631;28;20448;-72
2022/06/02 04:03:41;;;;;;;1.40;1.30;;;16.60;91.80;;;;;;5001539;28;20932;-72
2022/06/02 04:06:23;;;;;;;2.17;1.20;;;16.60;92.20;;;;;;5021089;28;20939;-72
2022/06/02 04:09:19;;;;;;;2.23;1.70;;;16.60;92.20;;;;;;5030141;28;20486;-73
2022/06/02 04:15:30;;;;;;;1.67;1.53;;;16.60;92.50;;;;;;5030857;28;20451;-72
2022/06/02 04:17:58;;;;;;;1.90;1.70;;;16.50;92.80;;;;;;5030121;28;20419;-72
2022/06/02 04:20:36;;;;;;;2.30;1.60;;;16.40;93.00;;;;;;5030167;28;20420;-72
2022/06/02 04:23:31;;;;;;;5.40;2.83;;;16.20;92.90;;;;;;5029882;28;20514;-73
2022/06/02 04:26:24;;;;;;;3.10;2.80;;;16.10;93.30;;;;;;5028598;28;20404;-73
2022/06/02 04:29:11;;;;;;;1.90;1.53;;;16.10;93.50;;;;;;5029972;28;20413;-73
2022/06/02 04:32:10;;;;;;;4.60;2.00;;;16.10;94.00;;;;;;5030072;28;20419;-71
2022/06/02 04:34:50;;;;;;;2.80;2.47;;;16.10;94.60;;;;;;5030064;28;20417;-74
2022/06/02 04:37:33;;;;;;;3.07;2.27;;;16.10;94.80;;;;;;5029921;28;20523;-72
2022/06/02 04:40:23;;;;;;;2.40;2.17;;;16.10;95.10;;;;;;5034739;22;20545;-72
2022/06/02 04:43:16;;;;;;;2.50;1.90;;;16.10;95.40;;;;;;5010447;28;21065;-72
2022/06/02 04:45:55;;;;;;;4.60;2.40;;;15.90;96.00;;;;;;5008538;28;20788;-72
2022/06/02 04:48:37;;;;;;;2.63;2.20;;;16.00;96.60;;;;;;5009469;28;20938;-72
2022/06/02 04:51:17;;;;;;;2.30;2.10;;;16.00;97.20;;;;;;4990673;28;20416;-72
2022/06/02 04:53:53;;;;;;;1.83;1.73;;;16.10;97.50;;;;;;4990187;28;20465;-72
2022/06/02 04:56:31;;;;;;;2.57;2.20;;;16.20;97.60;;;;;;4990028;28;20423;-74
2022/06/02 04:59:18;;;;;;;2.30;2.10;;;16.10;97.70;;;;;;4991406;28;20935;-74
2022/06/02 05:02:16;;;;;;;3.90;2.20;;;15.90;97.90;;;;;;4991412;28;20557;-72
2022/06/02 05:04:53;;;;;;;1.87;1.60;;;16.00;98.90;;;;;;4991410;28;20960;-73
2022/06/02 05:08:07;;;;;;;2.20;2.00;;;16.00;99.10;;;;;;4990049;28;20419;-73
2022/06/02 05:11:12;;;;;;;1.87;1.70;;;16.20;99.00;;;;;;4989806;28;20555;-73
2022/06/02 05:14:05;;;;;;;2.33;1.63;;;16.40;99.10;;;;;;4991094;28;20454;-72
2022/06/02 05:16:36;;;;;;;3.57;2.07;;;16.60;99.00;;;;;;4990136;28;21476;-73
2022/06/02 05:19:34;;;;;;;1.93;1.70;;;16.90;98.80;;;;;;4987262;28;20446;-72
2022/06/02 05:22:17;;;;;;;2.17;1.87;;;17.10;98.10;;;;;;4987908;28;20447;-72
2022/06/02 05:24:58;;;;;;;3.00;1.70;;;17.30;97.70;;;;;;4988776;28;20424;-74
2022/06/02 05:27:36;;;;;;;3.30;2.30;;;17.30;97.20;;;;;;4988918;28;20419;-76
2022/06/02 05:30:17;;;;;;;2.70;2.00;;;17.40;94.40;;;;;;4988352;28;20518;-74
2022/06/02 05:33:19;;;;;;;3.03;1.80;;;17.40;92.70;;;;;;4988527;28;20444;-75
2022/06/02 05:35:54;;;;;;;1.70;1.60;;;17.40;94.90;;;;;;4986942;28;20431;-74
2022/06/02 05:38:44;;;;;;;2.30;2.07;;;17.60;93.20;;;;;;4989556;28;20435;-75
2022/06/02 05:41:16;;;;;;;3.03;2.40;;;17.30;92.60;;;;;;4989130;28;20808;-74
2022/06/02 05:43:57;;;;;;;2.80;2.40;;;17.30;93.40;;;;;;4991051;28;20470;-73
2022/06/02 05:46:22;;;;;;;3.70;2.50;;;17.20;92.90;;;;;;4988704;28;21268;-74
2022/06/02 05:49:15;;;;;;;4.43;2.30;;;17.40;92.70;;;;;;4987828;28;20434;-74
2022/06/02 05:51:47;;;;;;;4.33;2.27;;;17.30;91.90;;;;;;4987444;28;20185;-74
2022/06/02 05:54:39;;;;;;;4.87;2.10;;;17.60;92.30;;;;;;4987351;28;20433;-73
2022/06/02 05:57:28;;;;;;;4.27;2.33;;;17.80;91.30;;;;;;4983832;28;20808;-73
2022/06/02 06:00:03;;;;;;;2.63;2.20;;;18.00;91.10;;;;;;4987485;28;20432;-73
2022/06/02 06:02:41;;;;;;;2.87;2.57;;;18.20;90.90;;;;;;4985945;28;21014;-72
2022/06/02 06:05:18;;;;;;;3.00;2.63;;;18.00;90.70;;;;;;4987245;28;20414;-72
2022/06/02 06:07:43;;;;;;;2.10;1.90;;;17.50;91.50;;;;;;4986985;28;20412;-74
2022/06/02 06:10:36;;;;;;;2.50;2.13;;;17.30;91.80;;;;;;4986984;28;20440;-74
2022/06/02 06:13:08;;;;;;;2.43;2.23;;;17.70;91.80;;;;;;4984463;28;20184;-74
2022/06/02 06:15:59;;;;;;;2.67;2.30;;;17.70;91.50;;;;;;4986819;28;20423;-72
2022/06/02 06:18:37;;;;;;;2.57;2.37;;;18.00;91.70;;;;;;4985208;28;20427;-71
2022/06/02 06:21:37;;;;;;;4.33;2.57;;;17.60;91.60;;;;;;4986419;28;20426;-73
2022/06/02 06:24:38;;;;;;;14.20;3.10;;;17.60;91.50;;;;;;4973359;28;20471;-73
2022/06/02 06:27:10;;;;;;;3.13;2.73;;;17.80;91.90;;;;;;4957482;28;20540;-73
2022/06/02 06:29:54;;;;;;;4.80;2.47;;;17.60;91.70;;;;;;4982715;28;20435;-73
2022/06/02 06:32:53;;;;;;;3.70;2.80;;;17.00;92.60;;;;;;4986243;28;20412;-75
2022/06/02 06:35:36;;;;;;;4.20;2.47;;;17.00;92.80;;;;;;4985206;28;20408;-75
2022/06/02 06:38:11;;;;;;;3.83;2.40;;;17.10;93.40;;;;;;4984778;28;20404;-74
2022/06/02 06:41:05;;;;;;;2.40;2.20;;;17.30;92.40;;;;;;4984680;28;20462;-72
2022/06/02 06:43:43;;;;;;;3.20;2.50;;;17.50;92.10;;;;;;4986028;28;20856;-73
2022/06/02 06:46:21;;;;;;;4.93;2.30;;;17.70;92.40;;;;;;4986465;28;20407;-74
2022/06/02 06:49:02;;;;;;;6.40;3.00;;;17.90;92.00;;;;;;4986195;28;20511;-73
2022/06/02 06:51:46;;;;;;;3.33;3.03;;;18.10;91.10;;;;;;4986039;28;20400;-73
2022/06/02 06:54:40;;;;;;;3.00;2.60;;;17.60;91.80;;;;;;4985874;28;20419;-72
2022/06/02 06:57:38;;;;;;;2.17;1.73;;;17.40;92.50;;;;;;4985894;28;20408;-75
2022/06/02 07:00:19;;;;;;;4.00;2.07;;;17.60;92.00;;;;;;4985943;28;20441;-75
2022/06/02 07:02:56;;;;;;;4.63;2.87;;;17.30;92.30;;;;;;4986125;28;20479;-73
2022/06/02 07:05:57;;;;;;;2.90;2.10;;;17.40;92.20;;;;;;4985646;28;20907;-74
2022/06/02 07:08:41;;;;;;;3.43;2.90;;;17.70;92.00;;;;;;4983110;28;21393;-73
2022/06/02 07:14:33;;;;;;;3.83;2.07;;;17.60;91.60;;;;;;4985435;28;20484;-72
2022/06/02 07:17:03;;;;;;;2.83;2.47;;;17.70;91.20;;;;;;4985429;28;21452;-73
2022/06/02 07:19:38;;;;;;;3.33;1.90;;;17.70;91.60;;;;;;4984861;28;20439;-71
2022/06/02 07:22:10;;;;;;;4.40;2.17;;;17.80;91.80;;;;;;4985395;28;20449;-72
2022/06/02 07:24:55;;;;;;;2.67;2.00;;;17.90;91.00;;;;;;4985976;28;20407;-74
2022/06/02 07:27:55;;;;;;;3.20;2.63;;;18.00;90.90;;;;;;4986888;28;20435;-74
2022/06/02 07:31:00;;;;;;;3.00;2.27;;;18.00;91.00;;;;;;4967251;28;20538;-73
2022/06/02 07:33:34;;;;;;;4.17;2.50;;;18.10;91.00;;;;;;4966170;28;20430;-73
2022/06/02 07:36:18;;;;;;;2.70;2.37;;;18.10;91.00;;;;;;4984194;28;20471;-73
2022/06/02 07:39:21;;;;;;;4.43;2.40;;;18.40;90.30;;;;;;4984990;28;20427;-72
2022/06/02 07:42:05;;;;;;;3.30;2.30;;;18.40;90.20;;;;;;4984351;28;20462;-72
2022/06/02 07:44:57;;;;;;;3.50;2.43;;;18.50;90.10;;;;;;4984859;28;20426;-72
2022/06/02 07:47:44;;;;;;;2.90;2.40;;;18.40;89.50;;;;;;4985148;28;20412;-72
2022/06/02 07:50:19;;;;;;;1.97;1.77;;;18.40;90.20;;;;;;4984700;28;20645;-73
2022/06/02 07:52:48;;;;;;;2.90;1.73;;;18.40;90.60;;;;;;4985210;28;20967;-71
2022/06/02 07:55:19;;;;;;;1.83;1.70;;;18.40;90.80;;;;;;4985037;28;20411;-73
2022/06/02 07:58:11;;;;;;;2.27;2.07;;;18.50;89.20;;;;;;4984771;28;20478;-74
2022/06/02 08:01:00;;;;;;;5.03;2.23;;;18.40;88.70;;;;;;4985210;28;20537;-73
2022/06/02 08:03:50;;;;;;;5.63;2.40;;;18.20;89.70;;;;;;4984450;28;20491;-73
2022/06/02 08:06:47;;;;;;;2.60;2.00;;;18.30;89.40;;;;;;4983150;28;20465;-71
2022/06/02 08:09:43;;;;;;;2.67;2.20;;;18.40;89.80;;;;;;4984697;28;20434;-71
2022/06/02 08:12:47;;;;;;;2.33;2.10;;;18.30;90.00;;;;;;4984694;28;20420;-72
2022/06/02 08:15:24;;;;;;;3.40;2.33;;;18.20;90.10;;;;;;4979695;28;20783;-73
2022/06/02 08:18:24;;;;;;;2.20;2.03;;;18.30;89.30;;;;;;4986907;28;20403;-72
2022/06/02 08:21:15;;;;;;;2.83;2.20;;;18.60;89.70;;;;;;4985200;28;20443;-73
2022/06/02 08:24:07;;;;;;;2.37;1.70;;;18.90;88.30;;;;;;4986674;28;20448;-71
2022/06/02 08:26:51;;;;;;;2.10;1.90;;;19.10;87.50;;;;;;4985674;28;21275;-70
2022/06/02 08:29:33;;;;;;;4.37;2.07;;;19.20;87.90;;;;;;4985580;28;20431;-69
2022/06/02 08:32:25;;;;;;;1.70;1.60;;;19.50;87.10;;;;;;4984798;28;20418;-70
2022/06/02 08:35:16;;;;;;;2.30;1.93;;;19.70;86.60;;;;;;4984359;28;20416;-70
2022/06/02 08:38:11;;;;;;;4.67;2.03;;;19.70;86.50;;;;;;4983429;28;20419;-71
2022/06/02 08:44:29;;;;;;;2.50;1.90;;;19.80;85.70;;;;;;4986389;28;20451;-72
2022/06/02 08:47:33;;;;;;;2.73;1.83;;;19.70;85.30;;;;;;4982518;28;20948;-71
2022/06/02 08:50:14;;;;;;;1.60;1.50;;;19.70;85.80;;;;;;4983770;28;20971;-70
2022/06/02 08:52:59;;;;;;;2.47;1.73;;;19.80;86.00;;;;;;4989146;28;20427;-69
2022/06/02 08:55:49;;;;;;;2.30;2.00;;;19.80;85.50;;;;;;4992427;28;20420;-72
2022/06/02 08:58:20;;;;;;;2.60;1.80;;;19.50;86.10;;;;;;4988585;28;20448;-70
2022/06/02 09:01:18;;;;;;;4.70;2.30;;;19.70;86.40;;;;;;4990386;28;20472;-74
2022/06/02 09:04:10;;;;;;;3.10;1.73;;;19.90;86.20;;;;;;4988868;28;20455;-71
2022/06/02 09:06:55;;;;;;;3.07;2.20;;;20.00;85.20;;;;;;4989019;28;20427;-72
2022/06/02 09:09:39;;;;;;;2.73;2.20;;;20.00;84.80;;;;;;4988719;28;20486;-70
2022/06/02 09:12:22;;;;;;;2.30;2.10;;;20.10;85.10;;;;;;4989712;28;20415;-71
2022/06/02 09:15:15;;;;;;;2.60;1.50;;;20.20;84.90;;;;;;4989000;28;20424;-72
2022/06/02 09:18:01;;;;;;;4.10;2.27;;;20.20;85.00;;;;;;4987983;28;20701;-73
2022/06/02 09:20:38;;;;;;;2.57;1.90;;;20.30;83.90;;;;;;4987872;28;20641;-73
2022/06/02 09:23:04;;;;;;;3.43;1.93;;;20.20;83.80;;;;;;4987923;28;20728;-72
2022/06/02 09:25:54;;;;;;;2.20;2.00;;;20.30;84.60;;;;;;4987854;28;20420;-73
2022/06/02 09:28:59;;;;;;;4.33;2.10;;;20.50;83.70;;;;;;4987730;28;20255;-70
2022/06/02 09:31:49;;;;;;;2.53;2.07;;;20.70;83.00;;;;;;4987377;28;20400;-71
2022/06/02 09:34:16;;;;;;;4.80;2.37;;;20.60;84.20;;;;;;4987327;28;20474;-71
2022/06/02 09:37:04;;;;;;;3.90;2.67;;;20.80;83.70;;;;;;4986768;28;20998;-72
2022/06/02 09:40:02;;;;;;;2.73;2.50;;;20.90;83.30;;;;;;4986979;28;20814;-69
2022/06/02 09:42:43;;;;;;;4.80;2.90;;;20.90;82.60;;;;;;4987376;28;20451;-69
2022/06/02 09:45:31;;;;;;;4.70;2.20;;;20.90;83.10;;;;;;4987049;28;20498;-70
2022/06/02 09:48:34;;;;;;;3.23;1.80;;;21.00;83.10;;;;;;4987375;28;20454;-71
2022/06/02 09:51:18;;;;;;;2.47;2.17;;;21.50;83.90;;;;;;4985505;28;20446;-71
2022/06/02 09:53:56;;;;;;;2.33;1.97;;;21.90;81.60;;;;;;4986734;28;20416;-72
2022/06/02 09:56:40;;;;;;;2.30;1.97;;;21.50;81.60;;;;;;4986913;28;20455;-73
2022/06/02 09:59:33;;;;;;;2.97;1.93;;;21.50;80.70;;;;;;4984663;28;21013;-73
2022/06/02 10:02:23;;;;;;;2.27;2.00;;;21.90;81.30;;;;;;4985273;28;20460;-72
2022/06/02 10:05:26;;;;;;;3.63;2.07;;;22.10;80.50;;;;;;4986768;28;20639;-71
2022/06/02 10:08:09;;;;;;;2.67;1.80;;;21.90;82.40;;;;;;4987557;28;20422;-73
2022/06/02 10:10:55;;;;;;;4.00;1.90;;;21.90;78.80;;;;;;4986798;28;20542;-71
2022/06/02 10:13:42;;;;;;;3.07;2.20;;;21.60;80.80;;;;;;4986882;28;20531;-72
2022/06/02 10:17:01;;;;;;;4.13;2.23;;;22.00;82.20;;;;;;4986772;28;20422;-73
2022/06/02 10:20:06;;;;;;;3.93;2.13;;;22.30;80.90;;;;;;4964402;28;20458;-72
2022/06/02 10:22:40;;;;;;;2.00;1.80;;;22.60;78.20;;;;;;4974987;28;20455;-72
2022/06/02 10:25:47;;;;;;;5.93;2.23;;;22.50;78.90;;;;;;4986644;28;20415;-72
2022/06/02 10:28:21;;;;;;;3.70;1.93;;;22.40;80.00;;;;;;4987193;28;20407;-72
2022/06/02 10:30:50;;;;;;;4.40;1.97;;;22.40;78.40;;;;;;4986956;28;20431;-72
2022/06/02 10:33:51;;;;;;;6.10;1.70;;;22.20;78.50;;;;;;4987461;28;20412;-71
2022/06/02 10:36:35;;;;;;;1.83;1.70;;;22.50;80.40;;;;;;4985168;28;20435;-71
2022/06/02 10:39:28;;;;;;;2.13;1.83;;;22.70;77.90;;;;;;4986689;28;20464;-73
2022/06/02 10:42:40;;;;;;;2.30;2.10;;;22.40;77.70;;;;;;4985367;28;20455;-71
2022/06/02 10:45:08;;;;;;;1.50;1.30;;;22.50;78.00;;;;;;4986754;28;20419;-71
2022/06/02 10:48:11;;;;;;;1.70;1.60;;;22.40;78.10;;;;;;4986548;28;20423;-73
2022/06/02 10:50:52;;;;;;;2.53;1.60;;;22.50;78.00;;;;;;4986904;28;20498;-71
2022/06/02 10:53:18;;;;;;;2.20;1.63;;;22.80;77.30;;;;;;4984302;28;20454;-73
2022/06/02 10:56:06;;;;;;;3.43;1.60;;;23.00;75.80;;;;;;5017364;22;20483;-74
2022/06/02 10:58:44;;;;;;;5.47;2.23;;;23.10;76.70;;;;;;5004203;28;20793;-72
2022/06/02 11:01:47;;;;;;;3.73;1.80;;;23.50;75.80;;;;;;5005433;28;20398;-72
2022/06/02 11:04:46;;;;;;;1.90;1.73;;;23.40;75.40;;;;;;5004592;28;20995;-73
2022/06/02 11:07:39;;;;;;;4.20;1.90;;;23.20;75.30;;;;;;5004652;28;20418;-70
2022/06/02 11:10:21;;;;;;;5.00;1.90;;;23.30;75.60;;;;;;5004599;28;20511;-69
2022/06/02 11:13:10;;;;;;;2.53;2.20;;;23.50;75.90;;;;;;5004533;28;20497;-73
2022/06/02 11:15:57;;;;;;;2.90;1.70;;;23.50;75.00;;;;;;5003484;28;20446;-71
2022/06/02 11:18:59;;;;;;;3.97;2.17;;;23.80;75.10;;;;;;5004186;28;20557;-74
2022/06/02 11:21:46;;;;;;;2.33;1.70;;;23.60;75.80;;;;;;5004574;28;20946;-72
2022/06/02 11:24:57;;;;;;;1.87;1.67;;;23.80;74.00;;;;;;5004223;28;20450;-73
2022/06/02 11:27:23;;;;;;;1.80;1.50;;;24.00;73.30;;;;;;5003216;28;20472;-70
2022/06/02 11:30:00;;;;;;;4.60;2.27;;;24.80;73.00;;;;;;5004458;28;20480;-74
2022/06/02 11:32:57;;;;;;;3.70;1.90;;;26.50;68.30;;;;;;5004316;28;20823;-72
2022/06/02 11:35:55;;;;;;;1.60;1.50;;;28.00;65.10;;;;;;5004634;28;20466;-70
2022/06/02 11:38:53;;;;;;;3.13;1.67;;;29.40;60.00;;;;;;5004528;28;20461;-73
2022/06/02 11:41:30;;;;;;;2.10;1.63;;;30.20;58.70;;;;;;5004285;28;20403;-73
2022/06/02 11:44:01;;;;;;;2.83;1.60;;;31.00;55.10;;;;;;5004007;28;20983;-73
2022/06/02 11:46:33;;;;;;;5.80;1.97;;;29.80;55.20;;;;;;5004310;28;20828;-74
2022/06/02 11:49:20;;;;;;;3.80;1.90;;;30.00;54.90;;;;;;5004958;28;20414;-73
2022/06/02 11:52:07;;;;;;;2.60;1.63;;;28.90;56.50;;;;;;5004151;28;20434;-71
2022/06/02 11:54:51;;;;;;;3.50;1.70;;;29.50;56.50;;;;;;5003718;28;20967;-71
2022/06/02 11:58:00;;;;;;;2.07;1.50;;;30.00;54.60;;;;;;5002897;28;20529;-74
2022/06/02 12:00:47;;;;;;;2.90;1.60;;;29.60;55.10;;;;;;4995798;28;20427;-73
2022/06/02 12:03:31;;;;;;;2.27;1.60;;;28.10;57.30;;;;;;5003785;28;20536;-73
2022/06/02 12:06:09;;;;;;;1.80;1.50;;;29.00;56.30;;;;;;5003915;28;20472;-72
2022/06/02 12:09:30;;;;;;;2.93;2.00;;;30.40;56.30;;;;;;5003685;28;20422;-73
2022/06/02 12:12:28;;;;;;;4.20;1.83;;;30.10;54.80;;;;;;5003993;28;20433;-74
2022/06/02 12:15:06;;;;;;;2.00;1.47;;;29.40;55.10;;;;;;5003965;28;20438;-74
2022/06/02 12:17:44;;;;;;;2.20;1.80;;;27.00;59.50;;;;;;5003749;28;20517;-73
2022/06/02 12:20:10;;;;;;;2.57;1.83;;;27.50;57.70;;;;;;5003890;28;20413;-73
2022/06/02 12:22:54;;;;;;;3.00;1.63;;;28.50;57.40;;;;;;5003889;28;20463;-73
2022/06/02 12:25:30;;;;;;;1.73;1.47;;;29.30;55.90;;;;;;5002354;28;20203;-73
2022/06/02 12:28:14;;;;;;;2.30;1.97;;;27.70;57.70;;;;;;5007286;28;20414;-74
2022/06/02 12:31:13;;;;;;;1.90;1.60;;;27.60;58.90;;;;;;5007737;28;20432;-73
2022/06/02 12:33:42;;;;;;;6.00;1.80;;;27.20;57.70;;;;;;5007527;28;20497;-72
2022/06/02 12:36:22;;;;;;;3.63;1.60;;;26.70;60.50;;;;;;5007526;28;20470;-73
2022/06/02 12:39:10;;;;;;;4.07;1.73;;;27.00;59.70;;;;;;5007771;28;20415;-75
2022/06/02 12:41:54;;;;;;;3.43;1.73;;;26.60;60.20;;;;;;5007550;28;20447;-76
2022/06/02 12:44:38;;;;;;;2.90;1.90;;;27.50;61.40;;;;;;5007815;28;20548;-74
2022/06/02 12:47:22;;;;;;;3.67;1.87;;;27.20;59.30;;;;;;5007338;28;20518;-73
2022/06/02 12:50:27;;;;;;;2.47;1.80;;;26.60;60.10;;;;;;5007600;28;21563;-75
2022/06/02 12:53:11;;;;;;;4.07;2.13;;;26.80;60.60;;;;;;5006846;28;20406;-72
2022/06/02 12:55:55;;;;;;;3.93;1.67;;;27.70;60.60;;;;;;5007262;28;20442;-71
2022/06/02 12:58:52;;;;;;;1.63;1.50;;;27.40;60.10;;;;;;5007885;28;20498;-72
2022/06/02 13:01:49;;;;;;;2.53;1.70;;;28.50;58.70;;;;;;5006902;28;20444;-73
2022/06/02 13:04:52;;;;;;;4.60;1.53;;;29.00;56.60;;;;;;5007165;28;20471;-72
2022/06/02 13:07:27;;;;;;;1.80;1.50;;;29.60;56.70;;;;;;5006971;28;20421;-73
2022/06/02 13:10:13;;;;;;;1.60;1.50;;;30.60;55.30;;;;;;5007042;28;20410;-72
2022/06/02 13:12:41;;;;;;;2.07;1.50;;;30.30;54.20;;;;;;5006903;28;20405;-72
2022/06/02 13:15:19;;;;;;;2.60;1.83;;;29.10;56.00;;;;;;5007174;28;20468;-74
2022/06/02 13:18:20;;;;;;;3.80;1.90;;;28.70;55.60;;;;;;5006838;28;20417;-74
2022/06/02 13:21:16;;;;;;;3.60;1.63;;;28.90;55.80;;;;;;4953190;28;21660;-76
2022/06/02 13:24:14;;;;;;;3.00;1.57;;;29.30;54.90;;;;;;5006340;28;20454;-74
2022/06/02 13:27:04;;;;;;;1.70;1.53;;;29.20;55.20;;;;;;5006975;28;20810;-74
2022/06/02 13:29:38;;;;;;;1.83;1.63;;;28.60;55.50;;;;;;5007044;28;20402;-73
2022/06/02 13:32:13;;;;;;;1.47;1.37;;;28.10;57.00;;;;;;5006663;28;20430;-74
2022/06/02 13:35:16;;;;;;;3.20;2.00;;;27.90;57.30;;;;;;5006725;28;20525;-73
2022/06/02 13:37:57;;;;;;;3.03;1.63;;;27.90;57.30;;;;;;5004486;28;20794;-74
2022/06/02 13:41:00;;;;;;;1.83;1.30;;;27.10;58.20;;;;;;5005175;28;20477;-72
2022/06/02 13:44:02;;;;;;;4.20;2.07;;;26.60;59.90;;;;;;5006486;28;20996;-72
2022/06/02 13:46:49;;;;;;;2.43;1.57;;;26.30;60.60;;;;;;5006410;28;20410;-73
2022/06/02 13:49:42;;;;;;;4.20;1.77;;;26.20;61.10;;;;;;5005926;28;20411;-72
2022/06/02 13:52:29;;;;;;;8.47;1.90;;;25.80;61.60;;;;;;5005939;28;20493;-73
2022/06/02 13:58:23;;;;;;;1.77;1.67;;;25.30;62.80;;;;;;5006281;28;20772;-74
2022/06/02 14:01:33;;;;;;;15.77;14.40;;;25.00;63.80;;;;;;5006065;28;20438;-76
2022/06/02 14:04:08;;;;;;;2.33;1.93;;;25.10;64.00;;;;;;5006011;28;20458;-74
2022/06/02 14:07:11;;;;;;;2.33;2.07;;;26.20;62.50;;;;;;5005868;28;20414;-73
2022/06/02 14:09:44;;;;;;;4.60;1.93;;;26.80;61.20;;;;;;5006075;28;20840;-73
2022/06/02 14:12:51;;;;;;;1.83;1.53;;;27.40;60.00;;;;;;5005989;28;20415;-73
2022/06/02 14:16:10;;;;;;;2.07;1.47;;;28.10;58.90;;;;;;5006105;28;20848;-73
2022/06/02 14:19:09;;;;;;;4.00;1.40;;;28.00;58.50;;;;;;4983629;28;20979;-72
2022/06/02 14:22:13;;;;;;;1.63;1.30;;;28.50;59.70;;;;;;5005777;28;20418;-73
2022/06/02 14:25:00;;;;;;;3.37;1.93;;;29.80;55.80;;;;;;4976585;28;20451;-75
2022/06/02 14:28:01;;;;;;;4.63;1.60;;;30.20;54.20;;;;;;5005876;28;20406;-76
2022/06/02 14:30:55;;;;;;;5.90;1.70;;;30.30;54.00;;;;;;5005831;28;20831;-74
2022/06/02 14:33:29;;;;;;;3.00;1.77;;;28.60;56.70;;;;;;4994866;28;20421;-75
2022/06/02 14:36:18;;;;;;;3.43;1.63;;;27.70;58.20;;;;;;5005695;28;20546;-74
2022/06/02 14:39:08;;;;;;;1.83;1.33;;;27.50;58.40;;;;;;5005462;28;20395;-74
2022/06/02 14:41:45;;;;;;;2.63;1.83;;;27.40;58.60;;;;;;5003909;28;20419;-75
2022/06/02 14:44:31;;;;;;;2.47;1.80;;;27.50;58.90;;;;;;5005338;28;20469;-74